Terminal Aerodrome Forecast
Issued by NWS

Home | Current Version | Previous Version | Text Only | Print | Product List | Glossary On
Versions: 1 2 3 4 5 6 7 8 9 10 11 12 13 14 15 16 17
000
FTUS44 KOUN 051123
TAFLAW
TAF
KLAW 051123Z 0512/0612 14003KT 1/4SM FG VV001
      TEMPO 0514/0515 2SM BR
     FM051600 18010KT P6SM BKN250
     FM060300 15004KT 4SM BR SCT015 SCT250
     FM060900 04011KT 6SM BR BKN009=

USA.gov is the U.S. government's official web portal to all federal, state and local government web resources and services.